Flugplatz Eberswalde-Finow

Für EDAV sind keine METAR/TAF Berichte vorhanden.
Es werden die Flugwettermeldungen vom Flugplatz Berlin-Tegel International in 40 km Entfernung angezeigt.

Bericht für EDDT

vom 31.05. um 10:20 UTC

Wind 7 kt aus 20°

Sichtweite 10 km oder mehr

gering bewölkt in 4100 ft

Temperatur 20.0°C

Taupunkt 8.0°C

Luftfeuchtigkeit 46%

Luftdruck 1021 hPa

keine wesentliche Wetteränderung innerhalb den nächsten 2 Stunden zu erwarten

EDDT 311020Z 02007KT 320V090 9999 FEW041 20/08 Q1021 NOSIG

Prognose für EDDT

vom 31.05. um 05:00 UTC

Zwischen 06:00 UTC und 06:00 UTC

Wind 7 kt aus 360°

Sichtweite 10 km oder mehr

keine signifikanten Wettererscheinungen

keine Wolken


Zwischen 06:00 und 09:00 UTC übergehend zu

Wind 12 kt aus 350°

Sichtweite 10 km oder mehr

keine signifikanten Wettererscheinungen

keine Wolken


Zwischen 10:00 UTC und 17:00 UTC zeitweise

Wind 15 kt aus 10° in Böen 25 kt


Zwischen 18:00 und 20:00 UTC übergehend zu

Wind 6 kt aus 20°

Sichtweite 10 km oder mehr

keine signifikanten Wettererscheinungen

keine Wolken

TAF EDDT 310500Z 3106/0106 36007KT CAVOK BECMG 3106/3109 35012KT TEMPO 3110/3117 01015G25KT BECMG 3118/3120 02006KT
Impressum